Latest Coastal Weather Observations for Cato Island

IDQ60701

Issued at 11:42 am EST Tuesday 22 August 2017 (issued every 10 minutes, with the page automatically refreshed every 10 minutes)

About coastal observations | Map of coastal stations | Coastal observations for QLD | Marine services | Other Formats
Station Details ID: 200601 Name: CATO ISLAND Lat: -23.25 Lon: 155.54 Height: 6.3 m
Data from the previous 72 hours. | See also: Recent months for locations in Queensland
Date/Time
EST
Temp
°C
Wind Pressure Rain since
9am
mm
Weather Cloud Vis
km
Sea
Height
m
Swell
Dir  Spd
kts
Gust
kts
hPa Trend Height
m
Period
s
Dir
22/11:30am 22.5 - 6 8 1020.0 - - - - - - - - -
22/11:00am 22.5 - 5 6 1020.5 - - - - - - - - -
22/10:30am 23.4 - 4 5 1020.8 - - - - - - - - -
22/10:00am 22.7 - 3 4 1020.9 - - - - - - - - -
22/09:30am 23.0 - 2 3 1021.0 - - - - - - - - -
22/09:00am 23.0 - 3 4 1021.1 - - - - - - - - -
22/08:30am 23.3 - 2 4 1021.1 - - - - - - - - -
22/08:00am 22.6 - 2 4 1020.9 - - - - - - - - -
22/07:30am 22.5 - 2 3 1020.7 - - - - - - - - -
22/07:00am 21.2 CALM 0 0 1020.4 - - - - - - - - -
22/06:30am 20.2 CALM 0 2 1020.1 - - - - - - - - -
22/06:00am 19.4 - 4 5 1019.8 - - - - - - - - -
22/05:30am 19.5 - 4 5 1019.5 - - - - - - - - -
22/05:00am 19.5 CALM 0 2 1019.3 - - - - - - - - -
22/04:30am 19.2 CALM 0 2 1019.0 - - - - - - - - -
22/04:00am 19.3 CALM 0 2 1018.8 - - - - - - - - -
22/03:30am 19.0 CALM 0 3 1018.7 - - - - - - - - -
22/03:00am 19.2 CALM 0 3 1018.7 - - - - - - - - -
22/02:30am 19.1 CALM 0 3 1018.9 - - - - - - - - -
22/02:00am 19.2 CALM 0 1 1019.0 - - - - - - - - -
22/01:30am 19.1 CALM 0 2 1019.1 - - - - - - - - -
22/01:00am 19.4 CALM 0 2 1019.5 - - - - - - - - -
22/12:30am 19.6 CALM 0 2 1019.8 - - - - - - - - -
22/12:00am 19.3 CALM 0 2 1019.9 - - - - - - - - -
 
Date/Time
EST
Temp
°C
Wind Pressure Rain since
9am
mm
Weather Cloud Vis
km
Sea
Height
m
Swell
Dir  Spd
kts
Gust
kts
hPa Trend Height
m
Period
s
Dir
21/11:30pm 19.9 CALM 0 2 1019.8 - - - - - - - - -
21/11:00pm 20.0 - 1 3 1019.9 - - - - - - - - -
21/10:30pm 19.6 - 1 3 1019.9 - - - - - - - - -
21/10:00pm 19.6 - 1 3 1019.8 - - - - - - - - -
21/09:30pm 20.2 CALM 0 2 1019.7 - - - - - - - - -
21/09:00pm 20.2 CALM 0 2 1019.7 - - - - - - - - -
21/08:30pm 20.1 - 1 3 1019.9 - - - - - - - - -
21/08:00pm 20.0 CALM 0 3 1019.9 - - - - - - - - -
21/07:30pm 20.1 CALM 0 3 1019.7 - - - - - - - - -
21/07:00pm 20.0 CALM 0 3 1019.3 - - - - - - - - -
21/06:30pm 20.1 CALM 0 3 1019.0 - - - - - - - - -
21/06:00pm 20.0 - 7 10 1018.9 - - - - - - - - -
21/05:30pm 19.9 - 8 12 1018.5 - - - - - - - - -
21/05:00pm 20.0 - 10 11 1018.3 - - - - - - - - -
21/04:30pm 20.2 - 10 12 1017.9 - - - - - - - - -
21/04:00pm 20.3 - 10 11 1017.8 - - - - - - - - -
21/03:30pm 20.3 - 11 13 1017.7 - - - - - - - - -
21/03:00pm 20.4 - 12 15 1017.7 - - - - - - - - -
21/02:30pm 20.3 - 13 16 1017.6 - - - - - - - - -
21/02:00pm 20.9 - 9 12 1017.9 - - - - - - - - -
21/01:30pm 20.7 - 10 13 1018.2 - - - - - - - - -
21/01:00pm 20.7 - 11 14 1018.3 - - - - - - - - -
21/12:30pm 20.9 - 12 16 1018.6 - - - - - - - - -
21/12:00pm 20.9 - 12 15 1018.9 - - - - - - - - -
21/11:30am 20.7 - 12 15 1019.2 - - - - - - - - -
21/11:00am 20.7 - 12 17 1019.5 - - - - - - - - -
21/10:30am 20.1 - 13 20 1019.8 - - - - - - - - -
21/10:00am 20.9 - 14 16 1019.9 - - - - - - - - -
21/09:30am 20.8 - 16 19 1020.1 - - - - - - - - -
21/09:00am 20.9 - 17 21 1019.9 - - - - - - - - -
21/08:30am 20.9 - 17 21 1019.7 - - - - - - - - -
21/08:00am 20.7 - 17 21 1019.4 - - - - - - - - -
21/07:30am 20.4 - 19 23 1018.9 - - - - - - - - -
21/07:00am 20.3 - 18 21 1018.6 - - - - - - - - -
21/06:30am 20.1 - 18 22 1018.3 - - - - - - - - -
21/06:00am 19.9 - 20 23 1018.1 - - - - - - - - -
21/05:30am 19.8 - 14 17 1017.7 - - - - - - - - -
21/05:00am 19.5 - 17 20 1017.3 - - - - - - - - -
21/04:30am 19.5 - 17 21 1017.1 - - - - - - - - -
21/04:00am 19.3 - 15 17 1017.1 - - - - - - - - -
21/03:30am 19.7 - 14 16 1017.3 - - - - - - - - -
21/03:00am 19.5 - 15 17 1017.2 - - - - - - - - -
21/02:30am 19.5 - 15 18 1017.2 - - - - - - - - -
21/02:00am 19.6 - 16 19 1017.2 - - - - - - - - -
21/01:30am 19.8 - 18 21 1017.4 - - - - - - - - -
21/01:00am 19.9 - 16 20 1017.7 - - - - - - - - -
21/12:30am 19.9 - 19 22 1017.7 - - - - - - - - -
21/12:00am 20.2 - 20 23 1017.9 - - - - - - - - -
 
Date/Time
EST
Temp
°C
Wind Pressure Rain since
9am
mm
Weather Cloud Vis
km
Sea
Height
m
Swell
Dir  Spd
kts
Gust
kts
hPa Trend Height
m
Period
s
Dir
20/11:30pm 20.1 - 20 27 1018.1 - - - - - - - - -
20/11:00pm 20.1 - 20 26 1018.1 - - - - - - - - -
20/10:30pm 18.7 - 15 27 1018.5 - - - - - - - - -
20/10:13pm 19.5 - 21 33 1018.1 - - - - - - - - -
20/10:00pm 20.3 - 19 22 1018.1 - - - - - - - - -
20/09:30pm 20.5 - 21 27 1018.0 - - - - - - - - -
20/09:00pm 20.3 - 24 29 1017.7 - - - - - - - - -
20/08:30pm 20.3 - 22 28 1017.5 - - - - - - - - -
20/08:00pm 20.3 - 23 27 1017.4 - - - - - - - - -
20/07:30pm 20.6 - 24 27 1017.0 - - - - - - - - -
20/07:00pm 20.4 - 22 28 1016.8 - - - - - - - - -
20/06:30pm 20.2 - 21 25 1016.6 - - - - - - - - -
20/06:00pm 20.0 - 21 27 1016.2 - - - - - - - - -
20/05:30pm 19.5 - 24 28 1016.0 - - - - - - - - -
20/05:00pm 20.0 - 22 26 1015.8 - - - - - - - - -
20/04:30pm 20.0 - 23 28 1015.6 - - - - - - - - -
20/04:00pm 20.0 - 25 30 1015.4 - - - - - - - - -
20/03:30pm 19.3 - 24 34 1015.2 - - - - - - - - -
20/03:28pm 18.7 - 24 34 1015.3 - - - - - - - - -
20/03:08pm 19.2 - 23 27 1015.1 - - - - - - - - -
20/03:00pm 18.3 - 8 12 1015.2 - - - - - - - - -
20/02:30pm 17.7 - 9 11 1015.4 - - - - - - - - -
20/02:00pm 16.8 - 13 18 1015.4 - - - - - - - - -
20/01:37pm 16.3 - 15 24 1015.8 - - - - - - - - -
20/01:30pm 17.1 - 10 12 1015.6 - - - - - - - - -
20/01:00pm 17.1 - 18 22 1016.0 - - - - - - - - -
20/12:30pm 17.4 - 24 31 1015.9 - - - - - - - - -
20/12:00pm 18.3 - 22 25 1015.9 - - - - - - - - -
20/11:30am 18.9 - 24 29 1016.3 - - - - - - - - -
20/11:00am 18.8 - 22 28 1016.7 - - - - - - - - -
20/10:30am 17.1 - 15 19 1017.1 - - - - - - - - -
20/10:00am 18.4 - 25 31 1017.0 - - - - - - - - -
20/09:30am 19.6 - 21 25 1016.9 - - - - - - - - -
20/09:00am 19.2 - 23 28 1016.6 - - - - - - - - -
20/08:30am 19.3 - 19 24 1016.5 - - - - - - - - -
20/08:00am 19.1 - 21 25 1016.2 - - - - - - - - -
20/07:33am 20.3 - 17 27 1015.9 - - - - - - - - -
20/07:30am 20.1 - 17 21 1015.9 - - - - - - - - -
20/07:00am 19.9 - 16 21 1015.6 - - - - - - - - -
20/06:30am 19.7 - 16 19 1015.3 - - - - - - - - -
20/06:00am 19.6 - 18 22 1015.0 - - - - - - - - -
20/05:30am 19.5 - 16 22 1014.7 - - - - - - - - -
20/05:00am 19.4 - 18 22 1014.3 - - - - - - - - -
20/04:30am 19.2 - 20 24 1014.2 - - - - - - - - -
20/04:00am 19.5 - 21 26 1013.9 - - - - - - - - -
20/03:30am 19.4 - 19 25 1013.9 - - - - - - - - -
20/03:00am 19.4 - 21 25 1014.0 - - - - - - - - -
20/02:30am 19.6 - 23 28 1014.1 - - - - - - - - -
20/02:00am 19.9 - 23 29 1014.2 - - - - - - - - -
20/01:30am 20.1 - 23 30 1014.4 - - - - - - - - -
20/01:00am 20.4 - 23 28 1014.4 - - - - - - - - -
20/12:30am 20.6 - 23 28 1014.6 - - - - - - - - -
20/12:00am 20.8 - 20 26 1014.7 - - - - - - - - -
 
Date/Time
EST
Temp
°C
Wind Pressure Rain since
9am
mm
Weather Cloud Vis
km
Sea
Height
m
Swell
Dir  Spd
kts
Gust
kts
hPa Trend Height
m
Period
s
Dir
19/11:30pm 20.7 - 20 25 1015.1 - - - - - - - - -
19/11:00pm 20.7 - 21 25 1015.2 - - - - - - - - -
19/10:30pm 20.5 - 20 24 1015.6 - - - - - - - - -
19/10:00pm 20.3 - 21 25 1015.9 - - - - - - - - -
19/09:30pm 20.6 - 21 27 1016.0 - - - - - - - - -
19/09:00pm 20.2 - 21 25 1015.9 - - - - - - - - -
19/08:30pm 20.3 - 22 29 1015.8 - - - - - - - - -
19/08:00pm 20.1 - 22 27 1015.7 - - - - - - - - -
19/07:30pm 19.8 - 21 28 1015.5 - - - - - - - - -
19/07:00pm 19.7 - 22 25 1015.2 - - - - - - - - -
19/06:30pm 19.7 - 22 27 1014.8 - - - - - - - - -
19/06:00pm 19.7 - 22 29 1014.3 - - - - - - - - -
19/05:30pm 19.5 - 21 29 1013.9 - - - - - - - - -
19/05:00pm 19.6 - 22 26 1013.8 - - - - - - - - -
19/04:30pm 19.5 - 22 28 1013.5 - - - - - - - - -
19/04:00pm 19.9 - 17 21 1013.3 - - - - - - - - -
19/03:30pm 20.2 - 19 24 1013.1 - - - - - - - - -
19/03:00pm 20.0 - 20 25 1012.9 - - - - - - - - -
19/02:30pm 20.3 - 21 25 1013.0 - - - - - - - - -
19/02:00pm 20.4 - 21 25 1013.1 - - - - - - - - -
19/01:30pm 20.4 - 20 24 1013.3 - - - - - - - - -
19/01:00pm 20.6 - 21 26 1013.4 - - - - - - - - -
19/12:30pm 20.9 - 22 27 1013.7 - - - - - - - - -
19/12:00pm 20.9 - 23 28 1014.1 - - - - - - - - -

Other Formats:

Comma delimited format used in spreadsheet applications
http://www.bom.gov.au/fwo/IDQ60701/IDQ60701.94394.axf

JavaScript Object Notation format (JSON) in row-major order
http://www.bom.gov.au/fwo/IDQ60701/IDQ60701.94394.json